Aviation Digital Data Service (ADDS)

Output produced by TAFs form (0105 UTC 27 January 2015)
found at http://aviationweather.gov/adds/tafs/
 
KMTJ 262328Z 2700/2724 VRB03KT P6SM SKC 
     FM270100 15007KT P6SM SKC 
     FM271400 VRB04KT P6SM SCT250 
     FM271800 35004KT P6SM BKN250